sensor_id;sensor_type;location;lat;lon;timestamp;pressure;altitude;pressure_sealevel;temperature;humidity
77147;BME280;66121;52.584;9.694;2024-01-07T00:01:38;101213.84;;;-1.51;100.00
77147;BME280;66121;52.584;9.694;2024-01-07T00:04:03;101220.59;;;-1.48;100.00
77147;BME280;66121;52.584;9.694;2024-01-07T00:06:29;101220.06;;;-1.50;100.00
77147;BME280;66121;52.584;9.694;2024-01-07T00:08:54;101218.75;;;-1.53;100.00
77147;BME280;66121;52.584;9.694;2024-01-07T00:11:19;101215.00;;;-1.57;100.00
77147;BME280;66121;52.584;9.694;2024-01-07T00:13:45;101209.38;;;-1.60;100.00
77147;BME280;66121;52.584;9.694;2024-01-07T00:16:10;101228.19;;;-1.50;100.00
77147;BME280;66121;52.584;9.694;2024-01-07T00:18:36;101229.63;;;-1.58;100.00
77147;BME280;66121;52.584;9.694;2024-01-07T00:21:01;101230.66;;;-1.54;100.00
77147;BME280;66121;52.584;9.694;2024-01-07T00:23:26;101226.00;;;-1.48;100.00
77147;BME280;66121;52.584;9.694;2024-01-07T00:25:52;101221.97;;;-1.51;100.00
77147;BME280;66121;52.584;9.694;2024-01-07T00:28:17;101225.31;;;-1.59;100.00
77147;BME280;66121;52.584;9.694;2024-01-07T00:30:42;101223.22;;;-1.67;100.00
77147;BME280;66121;52.584;9.694;2024-01-07T00:33:08;101210.31;;;-1.70;100.00
77147;BME280;66121;52.584;9.694;2024-01-07T00:35:33;101234.19;;;-1.53;100.00
77147;BME280;66121;52.584;9.694;2024-01-07T00:37:58;101227.75;;;-1.57;100.00
77147;BME280;66121;52.584;9.694;2024-01-07T00:40:24;101239.13;;;-1.60;100.00
77147;BME280;66121;52.584;9.694;2024-01-07T00:42:49;101228.59;;;-1.62;100.00
77147;BME280;66121;52.584;9.694;2024-01-07T00:45:16;101241.72;;;-1.50;100.00
77147;BME280;66121;52.584;9.694;2024-01-07T00:47:41;101240.09;;;-1.51;100.00
77147;BME280;66121;52.584;9.694;2024-01-07T00:50:07;101248.72;;;-1.49;100.00
77147;BME280;66121;52.584;9.694;2024-01-07T00:52:32;101243.09;;;-1.53;100.00
77147;BME280;66121;52.584;9.694;2024-01-07T00:54:58;101239.34;;;-1.57;100.00
77147;BME280;66121;52.584;9.694;2024-01-07T00:57:23;101249.84;;;-1.50;100.00
77147;BME280;66121;52.584;9.694;2024-01-07T00:59:48;101248.78;;;-1.54;100.00
77147;BME280;66121;52.584;9.694;2024-01-07T01:02:15;101256.63;;;-1.53;100.00
77147;BME280;66121;52.584;9.694;2024-01-07T01:04:40;101257.72;;;-1.54;100.00
77147;BME280;66121;52.584;9.694;2024-01-07T01:07:06;101261.81;;;-1.56;100.00
77147;BME280;66121;52.584;9.694;2024-01-07T01:09:32;101262.63;;;-1.56;100.00
77147;BME280;66121;52.584;9.694;2024-01-07T01:11:58;101251.03;;;-1.61;100.00
77147;BME280;66121;52.584;9.694;2024-01-07T01:14:23;101272.34;;;-1.55;100.00
77147;BME280;66121;52.584;9.694;2024-01-07T01:16:48;101275.63;;;-1.58;100.00
77147;BME280;66121;52.584;9.694;2024-01-07T01:19:14;101275.06;;;-1.55;100.00
77147;BME280;66121;52.584;9.694;2024-01-07T01:21:39;101273.19;;;-1.59;100.00
77147;BME280;66121;52.584;9.694;2024-01-07T01:24:04;101270.91;;;-1.71;100.00
77147;BME280;66121;52.584;9.694;2024-01-07T01:26:30;101287.03;;;-1.61;100.00
77147;BME280;66121;52.584;9.694;2024-01-07T01:28:55;101287.59;;;-1.64;100.00
77147;BME280;66121;52.584;9.694;2024-01-07T01:31:20;101296.56;;;-1.68;100.00
77147;BME280;66121;52.584;9.694;2024-01-07T01:33:46;101299.28;;;-1.68;100.00
77147;BME280;66121;52.584;9.694;2024-01-07T01:36:11;101297.72;;;-1.74;100.00
77147;BME280;66121;52.584;9.694;2024-01-07T01:38:36;101293.16;;;-1.79;100.00
77147;BME280;66121;52.584;9.694;2024-01-07T01:41:02;101297.44;;;-1.73;100.00
77147;BME280;66121;52.584;9.694;2024-01-07T01:43:28;101313.38;;;-1.71;100.00
77147;BME280;66121;52.584;9.694;2024-01-07T01:45:54;101319.34;;;-1.74;100.00
77147;BME280;66121;52.584;9.694;2024-01-07T01:48:21;101312.34;;;-1.75;100.00
77147;BME280;66121;52.584;9.694;2024-01-07T01:50:47;101306.47;;;-1.82;100.00
77147;BME280;66121;52.584;9.694;2024-01-07T01:53:14;101318.31;;;-1.78;100.00
77147;BME280;66121;52.584;9.694;2024-01-07T01:55:41;101312.34;;;-1.75;100.00
77147;BME280;66121;52.584;9.694;2024-01-07T01:58:08;101314.47;;;-1.72;100.00
77147;BME280;66121;52.584;9.694;2024-01-07T02:00:34;101317.19;;;-1.72;100.00
77147;BME280;66121;52.584;9.694;2024-01-07T02:02:59;101325.31;;;-1.72;100.00
77147;BME280;66121;52.584;9.694;2024-01-07T02:05:26;101325.63;;;-1.79;100.00
77147;BME280;66121;52.584;9.694;2024-01-07T02:07:52;101322.97;;;-1.84;100.00
77147;BME280;66121;52.584;9.694;2024-01-07T02:10:17;101330.00;;;-1.83;100.00
77147;BME280;66121;52.584;9.694;2024-01-07T02:12:43;101320.56;;;-1.85;100.00
77147;BME280;66121;52.584;9.694;2024-01-07T02:15:08;101321.88;;;-1.83;100.00
77147;BME280;66121;52.584;9.694;2024-01-07T02:17:34;101315.50;;;-1.92;100.00
77147;BME280;66121;52.584;9.694;2024-01-07T02:19:59;101330.34;;;-1.89;100.00
77147;BME280;66121;52.584;9.694;2024-01-07T02:22:25;101326.34;;;-1.97;100.00
77147;BME280;66121;52.584;9.694;2024-01-07T02:24:50;101321.78;;;-2.02;100.00
77147;BME280;66121;52.584;9.694;2024-01-07T02:27:15;101322.63;;;-2.06;100.00
77147;BME280;66121;52.584;9.694;2024-01-07T02:29:41;101346.34;;;-1.98;100.00
77147;BME280;66121;52.584;9.694;2024-01-07T02:32:06;101340.19;;;-2.04;100.00
77147;BME280;66121;52.584;9.694;2024-01-07T02:34:31;101345.59;;;-2.04;100.00
77147;BME280;66121;52.584;9.694;2024-01-07T02:36:57;101333.22;;;-2.10;100.00
77147;BME280;66121;52.584;9.694;2024-01-07T02:39:22;101336.91;;;-2.01;100.00
77147;BME280;66121;52.584;9.694;2024-01-07T02:41:48;101325.38;;;-2.11;100.00
77147;BME280;66121;52.584;9.694;2024-01-07T02:44:14;101335.97;;;-2.15;100.00
77147;BME280;66121;52.584;9.694;2024-01-07T02:46:39;101330.31;;;-2.18;100.00
77147;BME280;66121;52.584;9.694;2024-01-07T02:49:04;101345.91;;;-2.10;100.00
77147;BME280;66121;52.584;9.694;2024-01-07T02:51:30;101340.00;;;-2.12;100.00
77147;BME280;66121;52.584;9.694;2024-01-07T02:53:55;101343.25;;;-2.15;100.00
77147;BME280;66121;52.584;9.694;2024-01-07T02:56:20;101344.06;;;-2.15;100.00
77147;BME280;66121;52.584;9.694;2024-01-07T02:58:46;101345.69;;;-2.19;100.00
77147;BME280;66121;52.584;9.694;2024-01-07T03:01:11;101351.94;;;-2.18;100.00
77147;BME280;66121;52.584;9.694;2024-01-07T03:03:37;101362.44;;;-2.17;100.00
77147;BME280;66121;52.584;9.694;2024-01-07T03:06:02;101347.34;;;-2.18;100.00
77147;BME280;66121;52.584;9.694;2024-01-07T03:08:28;101350.28;;;-2.19;100.00
77147;BME280;66121;52.584;9.694;2024-01-07T03:10:53;101336.59;;;-2.28;100.00
77147;BME280;66121;52.584;9.694;2024-01-07T03:13:19;101356.25;;;-2.17;100.00
77147;BME280;66121;52.584;9.694;2024-01-07T03:15:44;101357.38;;;-2.23;100.00
77147;BME280;66121;52.584;9.694;2024-01-07T03:18:09;101354.63;;;-2.18;100.00
77147;BME280;66121;52.584;9.694;2024-01-07T03:20:35;101345.47;;;-2.22;100.00
77147;BME280;66121;52.584;9.694;2024-01-07T03:23:01;101341.72;;;-2.26;100.00
77147;BME280;66121;52.584;9.694;2024-01-07T03:25:26;101326.38;;;-2.36;100.00
77147;BME280;66121;52.584;9.694;2024-01-07T03:27:51;101341.16;;;-2.23;100.00
77147;BME280;66121;52.584;9.694;2024-01-07T03:30:17;101344.88;;;-2.19;100.00
77147;BME280;66121;52.584;9.694;2024-01-07T03:32:42;101328.75;;;-2.29;100.00
77147;BME280;66121;52.584;9.694;2024-01-07T03:35:08;101331.75;;;-2.31;100.00
77147;BME280;66121;52.584;9.694;2024-01-07T03:37:36;101329.53;;;-2.24;100.00
77147;BME280;66121;52.584;9.694;2024-01-07T03:40:02;101299.91;;;-2.39;100.00
77147;BME280;66121;52.584;9.694;2024-01-07T03:42:28;101310.16;;;-2.36;100.00
77147;BME280;66121;52.584;9.694;2024-01-07T03:44:53;101312.28;;;-2.28;100.00
77147;BME280;66121;52.584;9.694;2024-01-07T03:47:18;101311.16;;;-2.27;100.00
77147;BME280;66121;52.584;9.694;2024-01-07T03:49:44;101311.47;;;-2.28;100.00
77147;BME280;66121;52.584;9.694;2024-01-07T03:52:09;101300.13;;;-2.30;100.00
77147;BME280;66121;52.584;9.694;2024-01-07T03:54:34;101304.16;;;-2.28;100.00
77147;BME280;66121;52.584;9.694;2024-01-07T03:57:00;101302.53;;;-2.29;100.00
77147;BME280;66121;52.584;9.694;2024-01-07T03:59:25;101302.28;;;-2.27;100.00
77147;BME280;66121;52.584;9.694;2024-01-07T04:01:54;101287.19;;;-2.33;100.00
77147;BME280;66121;52.584;9.694;2024-01-07T04:04:19;101283.34;;;-2.27;100.00
77147;BME280;66121;52.584;9.694;2024-01-07T04:06:44;101287.13;;;-2.28;100.00
77147;BME280;66121;52.584;9.694;2024-01-07T04:09:10;101285.00;;;-2.31;100.00
77147;BME280;66121;52.584;9.694;2024-01-07T04:11:42;101281.44;;;-2.27;100.00
77147;BME280;66121;52.584;9.694;2024-01-07T04:14:08;101278.00;;;-2.32;100.00
77147;BME280;66121;52.584;9.694;2024-01-07T04:16:33;101272.09;;;-2.39;100.00
77147;BME280;66121;52.584;9.694;2024-01-07T04:18:58;101280.91;;;-2.29;100.00
77147;BME280;66121;52.584;9.694;2024-01-07T04:21:24;101271.72;;;-2.28;100.00
77147;BME280;66121;52.584;9.694;2024-01-07T04:23:49;101282.59;;;-2.33;100.00
77147;BME280;66121;52.584;9.694;2024-01-07T04:26:14;101277.19;;;-2.33;100.00
77147;BME280;66121;52.584;9.694;2024-01-07T04:28:44;101266.41;;;-2.38;100.00
77147;BME280;66121;52.584;9.694;2024-01-07T04:31:09;101270.41;;;-2.30;100.00
77147;BME280;66121;52.584;9.694;2024-01-07T04:33:35;101274.19;;;-2.31;100.00
77147;BME280;66121;52.584;9.694;2024-01-07T04:36:00;101258.31;;;-2.38;100.00
77147;BME280;66121;52.584;9.694;2024-01-07T04:38:26;101263.16;;;-2.35;100.00
77147;BME280;66121;52.584;9.694;2024-01-07T04:40:52;101269.06;;;-2.33;100.00
77147;BME280;66121;52.584;9.694;2024-01-07T04:43:18;101257.97;;;-2.31;100.00
77147;BME280;66121;52.584;9.694;2024-01-07T04:45:44;101239.19;;;-2.46;100.00
77147;BME280;66121;52.584;9.694;2024-01-07T04:48:09;101256.13;;;-2.36;100.00
77147;BME280;66121;52.584;9.694;2024-01-07T04:50:34;101273.38;;;-2.32;100.00
77147;BME280;66121;52.584;9.694;2024-01-07T04:53:00;101256.63;;;-2.34;100.00
77147;BME280;66121;52.584;9.694;2024-01-07T04:55:25;101253.41;;;-2.36;100.00
77147;BME280;66121;52.584;9.694;2024-01-07T04:57:50;101243.97;;;-2.38;100.00
77147;BME280;66121;52.584;9.694;2024-01-07T05:00:16;101243.47;;;-2.40;100.00
77147;BME280;66121;52.584;9.694;2024-01-07T05:02:41;101244.50;;;-2.36;100.00
77147;BME280;66121;52.584;9.694;2024-01-07T05:05:10;101246.69;;;-2.38;100.00
77147;BME280;66121;52.584;9.694;2024-01-07T05:07:35;101245.88;;;-2.39;100.00
77147;BME280;66121;52.584;9.694;2024-01-07T05:10:00;101242.44;;;-2.44;100.00
77147;BME280;66121;52.584;9.694;2024-01-07T05:12:26;101236.44;;;-2.41;100.00
77147;BME280;66121;52.584;9.694;2024-01-07T05:14:51;101238.88;;;-2.40;100.00
77147;BME280;66121;52.584;9.694;2024-01-07T05:17:17;101214.69;;;-2.55;100.00
77147;BME280;66121;52.584;9.694;2024-01-07T05:19:43;101220.78;;;-2.39;100.00
77147;BME280;66121;52.584;9.694;2024-01-07T05:22:08;101207.34;;;-2.49;100.00
77147;BME280;66121;52.584;9.694;2024-01-07T05:24:36;101189.56;;;-2.55;100.00
77147;BME280;66121;52.584;9.694;2024-01-07T05:27:02;101191.41;;;-2.51;100.00
77147;BME280;66121;52.584;9.694;2024-01-07T05:29:27;101199.75;;;-2.47;100.00
77147;BME280;66121;52.584;9.694;2024-01-07T05:31:52;101187.16;;;-2.57;100.00
77147;BME280;66121;52.584;9.694;2024-01-07T05:34:18;101174.72;;;-2.58;100.00
77147;BME280;66121;52.584;9.694;2024-01-07T05:36:43;101175.03;;;-2.59;100.00
77147;BME280;66121;52.584;9.694;2024-01-07T05:39:08;101164.25;;;-2.65;100.00
77147;BME280;66121;52.584;9.694;2024-01-07T05:41:37;101168.38;;;-2.72;100.00
77147;BME280;66121;52.584;9.694;2024-01-07T05:44:03;101167.03;;;-2.75;100.00
77147;BME280;66121;52.584;9.694;2024-01-07T05:46:29;101157.31;;;-2.76;100.00
77147;BME280;66121;52.584;9.694;2024-01-07T05:48:54;101164.59;;;-2.76;100.00
77147;BME280;66121;52.584;9.694;2024-01-07T05:51:19;101156.84;;;-2.83;100.00
77147;BME280;66121;52.584;9.694;2024-01-07T05:53:45;101160.88;;;-2.80;100.00
77147;BME280;66121;52.584;9.694;2024-01-07T05:56:11;101131.63;;;-3.02;100.00
77147;BME280;66121;52.584;9.694;2024-01-07T05:58:36;101149.06;;;-2.89;100.00
77147;BME280;66121;52.584;9.694;2024-01-07T06:01:02;101155.06;;;-2.97;100.00
77147;BME280;66121;52.584;9.694;2024-01-07T06:03:27;101167.47;;;-2.96;100.00
77147;BME280;66121;52.584;9.694;2024-01-07T06:05:52;101169.72;;;-3.08;100.00
77147;BME280;66121;52.584;9.694;2024-01-07T06:08:18;101165.72;;;-3.16;100.00
77147;BME280;66121;52.584;9.694;2024-01-07T06:10:43;101177.03;;;-3.14;100.00
77147;BME280;66121;52.584;9.694;2024-01-07T06:13:09;101174.97;;;-3.27;100.00
77147;BME280;66121;52.584;9.694;2024-01-07T06:15:34;101193.78;;;-3.12;100.00
77147;BME280;66121;52.584;9.694;2024-01-07T06:17:59;101200.28;;;-3.18;100.00
77147;BME280;66121;52.584;9.694;2024-01-07T06:20:24;101205.41;;;-3.21;100.00
77147;BME280;66121;52.584;9.694;2024-01-07T06:22:50;101187.47;;;-3.41;100.00
77147;BME280;66121;52.584;9.694;2024-01-07T06:25:16;101219.22;;;-3.28;100.00
77147;BME280;66121;52.584;9.694;2024-01-07T06:27:41;101215.50;;;-3.37;100.00
77147;BME280;66121;52.584;9.694;2024-01-07T06:30:07;101230.63;;;-3.41;100.00
77147;BME280;66121;52.584;9.694;2024-01-07T06:32:33;101228.53;;;-3.49;100.00
77147;BME280;66121;52.584;9.694;2024-01-07T06:34:58;101232.56;;;-3.52;100.00
77147;BME280;66121;52.584;9.694;2024-01-07T06:37:24;101253.06;;;-3.51;100.00
77147;BME280;66121;52.584;9.694;2024-01-07T06:39:49;101254.16;;;-3.57;100.00
77147;BME280;66121;52.584;9.694;2024-01-07T06:42:14;101258.47;;;-3.56;100.00
77147;BME280;66121;52.584;9.694;2024-01-07T06:44:40;101271.69;;;-3.54;100.00
77147;BME280;66121;52.584;9.694;2024-01-07T06:47:05;101265.75;;;-3.56;100.00
77147;BME280;66121;52.584;9.694;2024-01-07T06:49:30;101273.56;;;-3.55;100.00
77147;BME280;66121;52.584;9.694;2024-01-07T06:51:56;101285.97;;;-3.54;100.00
77147;BME280;66121;52.584;9.694;2024-01-07T06:54:21;101290.00;;;-3.56;100.00
77147;BME280;66121;52.584;9.694;2024-01-07T06:56:46;101298.66;;;-3.49;100.00
77147;BME280;66121;52.584;9.694;2024-01-07T06:59:12;101319.94;;;-3.43;100.00
77147;BME280;66121;52.584;9.694;2024-01-07T07:01:37;101287.91;;;-3.59;100.00
77147;BME280;66121;52.584;9.694;2024-01-07T07:04:03;101310.78;;;-3.47;100.00
77147;BME280;66121;52.584;9.694;2024-01-07T07:06:29;101331.00;;;-3.44;100.00
77147;BME280;66121;52.584;9.694;2024-01-07T07:08:54;101338.50;;;-3.36;100.00
77147;BME280;66121;52.584;9.694;2024-01-07T07:11:20;101339.88;;;-3.44;100.00
77147;BME280;66121;52.584;9.694;2024-01-07T07:13:45;101338.00;;;-3.43;100.00
77147;BME280;66121;52.584;9.694;2024-01-07T07:16:10;101349.56;;;-3.33;100.00
77147;BME280;66121;52.584;9.694;2024-01-07T07:18:37;101374.06;;;-3.19;100.00
77147;BME280;66121;52.584;9.694;2024-01-07T07:21:02;101370.03;;;-3.21;100.00
77147;BME280;66121;52.584;9.694;2024-01-07T07:23:27;101375.97;;;-3.19;100.00
77147;BME280;66121;52.584;9.694;2024-01-07T07:25:53;101372.47;;;-3.20;100.00
77147;BME280;66121;52.584;9.694;2024-01-07T07:28:18;101391.31;;;-3.10;100.00
77147;BME280;66121;52.584;9.694;2024-01-07T07:30:43;101388.09;;;-3.12;100.00
77147;BME280;66121;52.584;9.694;2024-01-07T07:33:09;101378.41;;;-3.18;100.00
77147;BME280;66121;52.584;9.694;2024-01-07T07:35:35;101396.97;;;-3.11;100.00
77147;BME280;66121;52.584;9.694;2024-01-07T07:38:00;101403.69;;;-2.99;100.00
77147;BME280;66121;52.584;9.694;2024-01-07T07:40:26;101400.75;;;-3.02;100.00
77147;BME280;66121;52.584;9.694;2024-01-07T07:42:51;101408.03;;;-3.03;100.00
77147;BME280;66121;52.584;9.694;2024-01-07T07:45:16;101423.16;;;-2.97;100.00
77147;BME280;66121;52.584;9.694;2024-01-07T07:47:42;101428.56;;;-3.02;100.00
77147;BME280;66121;52.584;9.694;2024-01-07T07:50:13;101419.91;;;-3.09;100.00
77147;BME280;66121;52.584;9.694;2024-01-07T07:52:38;101428.25;;;-2.95;100.00
77147;BME280;66121;52.584;9.694;2024-01-07T07:55:04;101439.81;;;-2.80;100.00
77147;BME280;66121;52.584;9.694;2024-01-07T07:57:29;101444.13;;;-2.84;100.00
77147;BME280;66121;52.584;9.694;2024-01-07T07:59:54;101446.84;;;-2.89;100.00
77147;BME280;66121;52.584;9.694;2024-01-07T08:02:20;101448.72;;;-2.79;100.00
77147;BME280;66121;52.584;9.694;2024-01-07T08:04:47;101451.69;;;-2.76;100.00
77147;BME280;66121;52.584;9.694;2024-01-07T08:07:12;101436.31;;;-2.80;100.00
77147;BME280;66121;52.584;9.694;2024-01-07T08:09:38;101450.00;;;-2.62;100.00
77147;BME280;66121;52.584;9.694;2024-01-07T08:12:04;101437.09;;;-2.75;100.00
77147;BME280;66121;52.584;9.694;2024-01-07T08:14:31;101440.56;;;-2.69;100.00
77147;BME280;66121;52.584;9.694;2024-01-07T08:16:57;101437.06;;;-2.65;100.00
77147;BME280;66121;52.584;9.694;2024-01-07T08:19:23;101434.06;;;-2.63;100.00
77147;BME280;66121;52.584;9.694;2024-01-07T08:21:48;101428.16;;;-2.65;100.00
77147;BME280;66121;52.584;9.694;2024-01-07T08:24:13;101405.75;;;-2.76;100.00
77147;BME280;66121;52.584;9.694;2024-01-07T08:26:39;101422.69;;;-2.55;100.00
77147;BME280;66121;52.584;9.694;2024-01-07T08:29:05;101419.66;;;-2.43;100.00
77147;BME280;66121;52.584;9.694;2024-01-07T08:31:31;101405.16;;;-2.63;100.00
77147;BME280;66121;52.584;9.694;2024-01-07T08:33:56;101401.91;;;-2.54;100.00
77147;BME280;66121;52.584;9.694;2024-01-07T08:36:21;101419.38;;;-2.42;100.00
77147;BME280;66121;52.584;9.694;2024-01-07T08:38:47;101419.38;;;-2.42;100.00
77147;BME280;66121;52.584;9.694;2024-01-07T08:41:15;101417.47;;;-2.41;100.00
77147;BME280;66121;52.584;9.694;2024-01-07T08:43:40;101409.09;;;-2.40;100.00
77147;BME280;66121;52.584;9.694;2024-01-07T08:46:06;101407.50;;;-2.46;100.00
77147;BME280;66121;52.584;9.694;2024-01-07T08:48:31;101398.34;;;-2.50;100.00
77147;BME280;66121;52.584;9.694;2024-01-07T08:50:56;101416.41;;;-2.40;100.00
77147;BME280;66121;52.584;9.694;2024-01-07T08:53:22;101421.78;;;-2.35;100.00
77147;BME280;66121;52.584;9.694;2024-01-07T08:55:48;101417.97;;;-2.34;100.00
77147;BME280;66121;52.584;9.694;2024-01-07T08:58:13;101415.75;;;-2.22;100.00
77147;BME280;66121;52.584;9.694;2024-01-07T09:00:39;101417.66;;;-2.23;100.00
77147;BME280;66121;52.584;9.694;2024-01-07T09:03:05;101421.66;;;-2.15;100.00
77147;BME280;66121;52.584;9.694;2024-01-07T09:05:32;101424.59;;;-2.12;100.00
77147;BME280;66121;52.584;9.694;2024-01-07T09:07:57;101422.09;;;-2.03;100.00
77147;BME280;66121;52.584;9.694;2024-01-07T09:10:23;101422.28;;;-1.89;100.00
77147;BME280;66121;52.584;9.694;2024-01-07T09:12:50;101416.06;;;-1.90;100.00
77147;BME280;66121;52.584;9.694;2024-01-07T09:15:18;101414.97;;;-1.89;100.00
77147;BME280;66121;52.584;9.694;2024-01-07T09:17:43;101390.19;;;-2.01;100.00
77147;BME280;66121;52.584;9.694;2024-01-07T09:20:10;101396.63;;;-1.92;100.00
77147;BME280;66121;52.584;9.694;2024-01-07T09:22:36;101403.78;;;-1.77;100.00
77147;BME280;66121;52.584;9.694;2024-01-07T09:25:02;101392.72;;;-1.81;100.00
77147;BME280;66121;52.584;9.694;2024-01-07T09:27:29;101398.34;;;-1.72;100.00
77147;BME280;66121;52.584;9.694;2024-01-07T09:29:54;101405.44;;;-1.81;100.00
77147;BME280;66121;52.584;9.694;2024-01-07T09:32:20;101424.50;;;-1.63;100.00
77147;BME280;66121;52.584;9.694;2024-01-07T09:34:45;101407.69;;;-1.60;100.00
77147;BME280;66121;52.584;9.694;2024-01-07T09:37:10;101398.22;;;-1.57;100.00
77147;BME280;66121;52.584;9.694;2024-01-07T09:39:42;101395.41;;;-1.47;100.00
77147;BME280;66121;52.584;9.694;2024-01-07T09:42:13;101395.06;;;-1.41;100.00
77147;BME280;66121;52.584;9.694;2024-01-07T09:44:40;101391.19;;;-1.35;100.00
77147;BME280;66121;52.584;9.694;2024-01-07T09:47:07;101386.22;;;-1.22;100.00
77147;BME280;66121;52.584;9.694;2024-01-07T09:49:35;101379.13;;;-1.18;100.00
77147;BME280;66121;52.584;9.694;2024-01-07T09:52:00;101365.28;;;-1.17;100.00
77147;BME280;66121;52.584;9.694;2024-01-07T09:54:27;101363.06;;;-1.10;100.00
77147;BME280;66121;52.584;9.694;2024-01-07T09:57:02;101367.81;;;-1.02;100.00
77147;BME280;66121;52.584;9.694;2024-01-07T09:59:30;101351.47;;;-1.15;100.00
77147;BME280;66121;52.584;9.694;2024-01-07T10:01:56;101338.69;;;-1.34;100.00
77147;BME280;66121;52.584;9.694;2024-01-07T10:04:23;101330.56;;;-1.34;100.00
77147;BME280;66121;52.584;9.694;2024-01-07T10:06:49;101339.00;;;-1.16;100.00
77147;BME280;66121;52.584;9.694;2024-01-07T10:09:16;101354.56;;;-1.03;100.00
77147;BME280;66121;52.584;9.694;2024-01-07T10:11:43;101350.78;;;-1.02;100.00
77147;BME280;66121;52.584;9.694;2024-01-07T10:14:09;101345.50;;;-0.94;100.00
77147;BME280;66121;52.584;9.694;2024-01-07T10:16:34;101342.44;;;-0.87;100.00
77147;BME280;66121;52.584;9.694;2024-01-07T10:19:00;101327.81;;;-0.86;100.00
77147;BME280;66121;52.584;9.694;2024-01-07T10:21:25;101316.84;;;-0.95;100.00
77147;BME280;66121;52.584;9.694;2024-01-07T10:23:50;101312.88;;;-0.84;100.00
77147;BME280;66121;52.584;9.694;2024-01-07T10:26:16;101313.53;;;-0.73;100.00
77147;BME280;66121;52.584;9.694;2024-01-07T10:28:41;101297.28;;;-0.73;100.00
77147;BME280;66121;52.584;9.694;2024-01-07T10:31:08;101306.09;;;-0.62;100.00
77147;BME280;66121;52.584;9.694;2024-01-07T10:33:34;101293.03;;;-0.60;100.00
77147;BME280;66121;52.584;9.694;2024-01-07T10:36:06;101293.84;;;-0.60;100.00
77147;BME280;66121;52.584;9.694;2024-01-07T10:38:32;101290.59;;;-0.43;100.00
77147;BME280;66121;52.584;9.694;2024-01-07T10:41:01;101266.13;;;-0.57;100.00
77147;BME280;66121;52.584;9.694;2024-01-07T10:43:29;101280.84;;;-0.44;100.00
77147;BME280;66121;52.584;9.694;2024-01-07T10:45:55;101283.31;;;-0.29;100.00
77147;BME280;66121;52.584;9.694;2024-01-07T10:48:21;101248.72;;;-0.51;100.00
77147;BME280;66121;52.584;9.694;2024-01-07T10:50:50;101269.84;;;-0.34;100.00
77147;BME280;66121;52.584;9.694;2024-01-07T10:53:20;101248.03;;;-0.43;100.00
77147;BME280;66121;52.584;9.694;2024-01-07T10:55:54;101245.59;;;-0.44;100.00
77147;BME280;66121;52.584;9.694;2024-01-07T10:58:22;101248.28;;;-0.26;100.00
77147;BME280;66121;52.584;9.694;2024-01-07T11:00:49;101228.97;;;-0.38;100.00
77147;BME280;66121;52.584;9.694;2024-01-07T11:03:20;101237.47;;;-0.12;100.00
77147;BME280;66121;52.584;9.694;2024-01-07T11:05:58;101214.84;;;-0.21;100.00
77147;BME280;66121;52.584;9.694;2024-01-07T11:08:28;101207.13;;;-0.14;100.00
77147;BME280;66121;52.584;9.694;2024-01-07T11:13:38;101199.72;;;0.05;100.00
77147;BME280;66121;52.584;9.694;2024-01-07T11:16:05;101186.47;;;0.04;100.00
77147;BME280;66121;52.584;9.694;2024-01-07T11:18:45;101178.03;;;0.19;100.00
77147;BME280;66121;52.584;9.694;2024-01-07T11:21:20;101153.31;;;0.07;100.00
77147;BME280;66121;52.584;9.694;2024-01-07T11:23:46;101153.00;;;0.22;100.00
77147;BME280;66121;52.584;9.694;2024-01-07T11:26:12;101145.56;;;0.27;100.00
77147;BME280;66121;52.584;9.694;2024-01-07T11:28:54;101142.34;;;0.12;100.00
77147;BME280;66121;52.584;9.694;2024-01-07T11:31:44;101153.91;;;0.17;100.00
77147;BME280;66121;52.584;9.694;2024-01-07T11:34:41;101119.16;;;-0.08;100.00
77147;BME280;66121;52.584;9.694;2024-01-07T11:37:10;101148.38;;;0.09;100.00
77147;BME280;66121;52.584;9.694;2024-01-07T11:39:37;101167.50;;;0.17;100.00
77147;BME280;66121;52.584;9.694;2024-01-07T11:42:03;101153.41;;;0.15;100.00
77147;BME280;66121;52.584;9.694;2024-01-07T11:44:29;101146.78;;;0.21;100.00
77147;BME280;66121;52.584;9.694;2024-01-07T11:46:55;101122.44;;;0.03;100.00
77147;BME280;66121;52.584;9.694;2024-01-07T11:49:21;101119.53;;;0.13;100.00
77147;BME280;66121;52.584;9.694;2024-01-07T11:51:46;101127.78;;;0.21;100.00
77147;BME280;66121;52.584;9.694;2024-01-07T11:54:12;101094.50;;;0.16;100.00
77147;BME280;66121;52.584;9.694;2024-01-07T11:56:37;101085.44;;;0.20;100.00
77147;BME280;66121;52.584;9.694;2024-01-07T11:59:03;101073.63;;;0.03;100.00
77147;BME280;66121;52.584;9.694;2024-01-07T12:01:28;101085.88;;;0.14;100.00
77147;BME280;66121;52.584;9.694;2024-01-07T12:03:54;101077.75;;;0.14;100.00
77147;BME280;66121;52.584;9.694;2024-01-07T12:06:19;101040.19;;;0.07;100.00
77147;BME280;66121;52.584;9.694;2024-01-07T12:08:45;101054.84;;;0.20;100.00
77147;BME280;66121;52.584;9.694;2024-01-07T12:11:12;101066.19;;;0.22;100.00
77147;BME280;66121;52.584;9.694;2024-01-07T12:13:38;101038.94;;;0.13;100.00
77147;BME280;66121;52.584;9.694;2024-01-07T12:16:08;101034.53;;;0.17;100.00
77147;BME280;66121;52.584;9.694;2024-01-07T12:18:37;101036.81;;;0.24;100.00
77147;BME280;66121;52.584;9.694;2024-01-07T12:21:03;100992.00;;;0.13;100.00
77147;BME280;66121;52.584;9.694;2024-01-07T12:23:28;100971.44;;;0.12;100.00
77147;BME280;66121;52.584;9.694;2024-01-07T12:25:54;100994.69;;;0.26;100.00
77147;BME280;66121;52.584;9.694;2024-01-07T12:28:21;100979.63;;;0.20;100.00
77147;BME280;66121;52.584;9.694;2024-01-07T12:30:49;100968.59;;;0.17;100.00
77147;BME280;66121;52.584;9.694;2024-01-07T12:33:21;100990.13;;;0.35;100.00
77147;BME280;66121;52.584;9.694;2024-01-07T12:35:47;100970.88;;;0.23;100.00
77147;BME280;66121;52.584;9.694;2024-01-07T12:38:13;100960.72;;;0.29;100.00